createdAt,value
2023-05-20T00:00:07.845Z,725.00
2023-05-20T00:01:07.863Z,724.00
2023-05-20T00:02:07.923Z,725.00
2023-05-20T00:03:08.116Z,725.00
2023-05-20T00:04:08.081Z,727.00
2023-05-20T00:05:08.775Z,727.00
2023-05-20T00:06:08.075Z,726.00
2023-05-20T00:07:08.104Z,725.00
2023-05-20T00:08:08.138Z,723.00
2023-05-20T00:09:08.183Z,723.00
2023-05-20T00:10:08.243Z,723.00
2023-05-20T00:11:09.165Z,724.00
2023-05-20T00:12:08.691Z,722.00
2023-05-20T00:13:08.413Z,719.00
2023-05-20T00:14:08.381Z,717.00
2023-05-20T00:15:08.407Z,714.00
2023-05-20T00:16:08.477Z,714.00
2023-05-20T00:17:08.441Z,715.00
2023-05-20T00:18:08.578Z,717.00
2023-05-20T00:19:08.585Z,717.00
2023-05-20T00:20:08.494Z,718.00
2023-05-20T00:21:08.509Z,719.00
2023-05-20T00:22:08.561Z,720.00
2023-05-20T00:23:08.568Z,720.00
2023-05-20T00:24:08.579Z,721.00
2023-05-20T00:25:08.591Z,720.00
2023-05-20T00:26:08.589Z,720.00
2023-05-20T00:27:08.594Z,719.00
2023-05-20T00:28:08.622Z,718.00
2023-05-20T00:29:08.624Z,720.00
2023-05-20T00:30:08.634Z,723.00
2023-05-20T00:31:08.667Z,723.00
2023-05-20T00:32:08.720Z,724.00
2023-05-20T00:33:09.217Z,724.00
2023-05-20T00:34:08.780Z,725.00
2023-05-20T00:35:08.812Z,727.00
2023-05-20T00:36:08.916Z,727.00
2023-05-20T00:37:08.920Z,727.00
2023-05-20T00:38:08.968Z,726.00
2023-05-20T00:39:09.006Z,728.00
2023-05-20T00:40:09.056Z,730.00
2023-05-20T00:41:09.094Z,727.00
2023-05-20T00:42:09.143Z,729.00
2023-05-20T00:43:09.196Z,729.00
2023-05-20T00:44:09.230Z,729.00
2023-05-20T00:45:09.266Z,729.00
2023-05-20T00:46:09.342Z,729.00
2023-05-20T00:47:10.216Z,727.00
2023-05-20T00:48:09.412Z,727.00
2023-05-20T00:49:09.477Z,725.00
2023-05-20T00:50:09.526Z,727.00
2023-05-20T00:51:09.567Z,727.00
2023-05-20T00:52:09.600Z,727.00
2023-05-20T00:53:09.639Z,726.00
2023-05-20T00:54:09.677Z,727.00
2023-05-20T00:55:09.701Z,730.00
2023-05-20T00:56:09.780Z,728.00
2023-05-20T00:57:09.781Z,727.00
2023-05-20T00:58:09.794Z,728.00
2023-05-20T00:59:09.836Z,726.00
2023-05-20T01:00:09.874Z,725.00
2023-05-20T01:01:09.958Z,725.00
2023-05-20T01:02:09.945Z,724.00
2023-05-20T01:03:10.173Z,723.00
2023-05-20T01:04:10.010Z,722.00
2023-05-20T01:05:10.026Z,720.00
2023-05-20T01:06:10.048Z,719.00
2023-05-20T01:07:10.162Z,723.00
2023-05-20T01:08:10.105Z,723.00
2023-05-20T01:09:10.135Z,724.00
2023-05-20T01:10:10.172Z,721.00
2023-05-20T01:11:10.174Z,722.00
2023-05-20T01:12:10.196Z,719.00
2023-05-20T01:13:10.250Z,718.00
2023-05-20T01:14:10.267Z,718.00
2023-05-20T01:15:10.296Z,719.00
2023-05-20T01:16:10.349Z,724.00
2023-05-20T01:17:10.294Z,723.00
2023-05-20T01:18:10.367Z,722.00
2023-05-20T01:19:10.397Z,723.00
2023-05-20T01:20:10.455Z,721.00
2023-05-20T01:21:10.471Z,721.00
2023-05-20T01:22:10.431Z,719.00
2023-05-20T01:23:10.470Z,721.00
2023-05-20T01:24:10.507Z,719.00
2023-05-20T01:25:10.579Z,719.00
2023-05-20T01:26:10.595Z,720.00
2023-05-20T01:27:10.601Z,718.00
2023-05-20T01:28:10.645Z,719.00
2023-05-20T01:29:10.652Z,719.00
2023-05-20T01:30:10.663Z,721.00
2023-05-20T01:31:10.719Z,720.00
2023-05-20T01:32:10.763Z,716.00
2023-05-20T01:33:10.894Z,718.00
2023-05-20T01:34:10.861Z,720.00
2023-05-20T01:35:10.918Z,719.00
2023-05-20T01:36:10.980Z,722.00
2023-05-20T01:37:11.049Z,725.00
2023-05-20T01:38:11.114Z,726.00
2023-05-20T01:39:11.166Z,726.00
2023-05-20T01:40:11.204Z,724.00
2023-05-20T01:41:11.280Z,726.00
2023-05-20T01:42:11.300Z,724.00
2023-05-20T01:43:11.364Z,728.00
2023-05-20T01:44:11.416Z,728.00
2023-05-20T01:45:11.475Z,725.00
2023-05-20T01:46:11.552Z,723.00
2023-05-20T01:47:11.556Z,722.00
2023-05-20T01:48:11.689Z,721.00
2023-05-20T01:49:11.651Z,721.00
2023-05-20T01:50:11.682Z,722.00
2023-05-20T01:51:11.711Z,719.00
2023-05-20T01:52:11.764Z,720.00
2023-05-20T01:53:11.801Z,717.00
2023-05-20T01:54:11.836Z,719.00
2023-05-20T01:55:11.900Z,720.00
2023-05-20T01:56:12.695Z,722.00
2023-05-20T01:57:11.988Z,722.00
2023-05-20T01:58:12.037Z,720.00
2023-05-20T01:59:12.104Z,721.00
2023-05-20T02:00:12.170Z,719.00
2023-05-20T02:01:12.413Z,720.00
2023-05-20T02:02:12.327Z,720.00
2023-05-20T02:03:12.391Z,719.00
2023-05-20T02:04:12.384Z,720.00
2023-05-20T02:05:12.433Z,719.00
2023-05-20T02:06:12.514Z,720.00
2023-05-20T02:07:12.571Z,721.00
2023-05-20T02:08:12.630Z,722.00
2023-05-20T02:09:12.660Z,724.00
2023-05-20T02:10:12.725Z,726.00
2023-05-20T02:11:12.757Z,726.00
2023-05-20T02:12:12.806Z,729.00
2023-05-20T02:13:13.205Z,729.00
2023-05-20T02:14:12.920Z,727.00
2023-05-20T02:15:12.980Z,728.00
2023-05-20T02:16:13.099Z,728.00
2023-05-20T02:17:13.100Z,728.00
2023-05-20T02:18:13.186Z,727.00
2023-05-20T02:19:14.290Z,726.00
2023-05-20T02:20:13.274Z,729.00
2023-05-20T02:21:13.348Z,729.00
2023-05-20T02:22:13.380Z,727.00
2023-05-20T02:23:13.452Z,726.00
2023-05-20T02:24:13.595Z,725.00
2023-05-20T02:25:13.572Z,726.00
2023-05-20T02:26:13.621Z,724.00
2023-05-20T02:27:13.668Z,722.00
2023-05-20T02:28:13.732Z,723.00
2023-05-20T02:29:13.739Z,723.00
2023-05-20T02:30:13.771Z,724.00
2023-05-20T02:31:13.821Z,723.00
2023-05-20T02:32:13.861Z,722.00
2023-05-20T02:33:13.973Z,725.00
2023-05-20T02:34:14.022Z,722.00
2023-05-20T02:35:14.006Z,721.00
2023-05-20T02:36:14.059Z,722.00
2023-05-20T02:37:14.103Z,721.00
2023-05-20T02:38:14.101Z,722.00
2023-05-20T02:39:14.135Z,722.00
2023-05-20T02:40:14.163Z,724.00
2023-05-20T02:41:14.274Z,725.00
2023-05-20T02:42:14.307Z,728.00
2023-05-20T02:43:14.268Z,728.00
2023-05-20T02:44:15.228Z,727.00
2023-05-20T02:45:14.326Z,729.00
2023-05-20T02:46:14.351Z,727.00
2023-05-20T02:47:14.356Z,725.00
2023-05-20T02:48:14.374Z,724.00
2023-05-20T02:49:14.725Z,722.00
2023-05-20T02:50:14.449Z,722.00
2023-05-20T02:51:14.486Z,725.00
2023-05-20T02:52:14.527Z,728.00
2023-05-20T02:53:14.575Z,729.00
2023-05-20T02:54:14.606Z,729.00
2023-05-20T02:55:14.678Z,728.00
2023-05-20T02:56:14.720Z,727.00
2023-05-20T02:57:14.715Z,725.00
2023-05-20T02:58:14.745Z,724.00
2023-05-20T02:59:14.794Z,725.00
2023-05-20T03:00:14.851Z,724.00
2023-05-20T03:01:14.947Z,723.00
2023-05-20T03:02:14.960Z,721.00
2023-05-20T03:03:15.013Z,721.00
2023-05-20T03:04:15.254Z,721.00
2023-05-20T03:05:15.128Z,722.00
2023-05-20T03:06:15.729Z,723.00
2023-05-20T03:07:15.228Z,724.00
2023-05-20T03:08:15.279Z,722.00
2023-05-20T03:09:15.278Z,721.00
2023-05-20T03:10:15.324Z,721.00
2023-05-20T03:11:15.392Z,721.00
2023-05-20T03:12:15.448Z,720.00
2023-05-20T03:13:15.500Z,722.00
2023-05-20T03:14:15.537Z,724.00
2023-05-20T03:15:15.669Z,722.00
2023-05-20T03:16:15.663Z,722.00
2023-05-20T03:17:15.678Z,721.00
2023-05-20T03:18:15.708Z,723.00
2023-05-20T03:19:15.754Z,723.00
2023-05-20T03:20:15.755Z,723.00
2023-05-20T03:21:15.780Z,723.00
2023-05-20T03:22:15.797Z,723.00
2023-05-20T03:23:15.822Z,722.00
2023-05-20T03:24:15.862Z,723.00
2023-05-20T03:25:15.951Z,721.00
2023-05-20T03:26:15.965Z,723.00
2023-05-20T03:27:15.994Z,724.00
2023-05-20T03:28:16.074Z,722.00
2023-05-20T03:29:16.106Z,721.00
2023-05-20T03:30:16.143Z,720.00
2023-05-20T03:31:16.210Z,716.00
2023-05-20T03:32:16.255Z,715.00
2023-05-20T03:33:16.257Z,714.00
2023-05-20T03:34:17.233Z,716.00
2023-05-20T03:35:16.315Z,716.00
2023-05-20T03:36:16.377Z,717.00
2023-05-20T03:37:16.361Z,717.00
2023-05-20T03:38:16.385Z,716.00
2023-05-20T03:39:16.424Z,716.00
2023-05-20T03:40:16.492Z,716.00
2023-05-20T03:41:16.551Z,715.00
2023-05-20T03:42:16.581Z,713.00
2023-05-20T03:43:16.625Z,711.00
2023-05-20T03:44:16.745Z,714.00
2023-05-20T03:45:16.685Z,714.00
2023-05-20T03:46:16.821Z,714.00
2023-05-20T03:47:16.726Z,714.00
2023-05-20T03:48:16.737Z,715.00
2023-05-20T03:49:17.729Z,716.00
2023-05-20T03:50:16.811Z,712.00
2023-05-20T03:51:16.854Z,712.00
2023-05-20T03:52:16.899Z,709.00
2023-05-20T03:53:16.935Z,711.00
2023-05-20T03:54:16.958Z,712.00
2023-05-20T03:55:17.026Z,713.00
2023-05-20T03:56:17.040Z,712.00
2023-05-20T03:57:17.082Z,711.00
2023-05-20T03:58:17.096Z,712.00
2023-05-20T03:59:17.099Z,713.00
2023-05-20T04:00:17.116Z,712.00
2023-05-20T04:01:17.149Z,714.00
2023-05-20T04:02:17.261Z,712.00
2023-05-20T04:03:17.328Z,714.00
2023-05-20T04:04:17.314Z,716.00
2023-05-20T04:05:17.224Z,717.00
2023-05-20T04:06:17.198Z,716.00
2023-05-20T04:07:17.214Z,714.00
2023-05-20T04:08:17.248Z,713.00
2023-05-20T04:09:17.273Z,712.00
2023-05-20T04:10:17.271Z,706.00
2023-05-20T04:11:17.284Z,708.00
2023-05-20T04:12:17.277Z,711.00
2023-05-20T04:13:17.377Z,714.00
2023-05-20T04:14:17.455Z,714.00
2023-05-20T04:15:17.340Z,712.00
2023-05-20T04:16:17.362Z,712.00
2023-05-20T04:17:17.369Z,712.00
2023-05-20T04:18:17.374Z,712.00
2023-05-20T04:19:17.421Z,713.00
2023-05-20T04:20:17.436Z,712.00
2023-05-20T04:21:17.451Z,709.00
2023-05-20T04:22:17.469Z,710.00
2023-05-20T04:23:17.506Z,707.00
2023-05-20T04:24:17.563Z,707.00
2023-05-20T04:25:17.616Z,707.00
2023-05-20T04:26:17.679Z,709.00
2023-05-20T04:27:17.740Z,712.00
2023-05-20T04:28:17.802Z,713.00
2023-05-20T04:29:17.853Z,709.00
2023-05-20T04:30:17.902Z,707.00
2023-05-20T04:31:17.984Z,708.00
2023-05-20T04:32:17.985Z,710.00
2023-05-20T04:33:18.034Z,712.00
2023-05-20T04:34:18.085Z,713.00
2023-05-20T04:35:18.752Z,717.00
2023-05-20T04:36:18.187Z,718.00
2023-05-20T04:37:18.233Z,717.00
2023-05-20T04:38:18.269Z,714.00
2023-05-20T04:39:18.303Z,712.00
2023-05-20T04:40:18.344Z,711.00
2023-05-20T04:41:18.398Z,710.00
2023-05-20T04:42:18.418Z,710.00
2023-05-20T04:43:18.464Z,713.00
2023-05-20T04:44:18.495Z,712.00
2023-05-20T04:45:19.251Z,713.00
2023-05-20T04:46:18.610Z,714.00
2023-05-20T04:47:18.604Z,716.00
2023-05-20T04:48:18.629Z,715.00
2023-05-20T04:49:18.664Z,713.00
2023-05-20T04:50:18.695Z,712.00
2023-05-20T04:51:18.736Z,715.00
2023-05-20T04:52:18.775Z,717.00
2023-05-20T04:53:18.819Z,716.00
2023-05-20T04:54:18.853Z,714.00
2023-05-20T04:55:18.897Z,712.00
2023-05-20T04:56:18.909Z,711.00
2023-05-20T04:57:18.924Z,711.00
2023-05-20T04:58:19.004Z,711.00
2023-05-20T04:59:19.008Z,708.00
2023-05-20T05:00:19.059Z,709.00
2023-05-20T05:01:19.111Z,708.00
2023-05-20T05:02:19.128Z,708.00
2023-05-20T05:03:19.184Z,711.00
2023-05-20T05:04:19.851Z,712.00
2023-05-20T05:05:19.296Z,712.00
2023-05-20T05:06:19.322Z,712.00
2023-05-20T05:07:19.371Z,712.00
2023-05-20T05:08:19.427Z,712.00
2023-05-20T05:09:19.480Z,710.00
2023-05-20T05:10:19.513Z,709.00
2023-05-20T05:11:19.595Z,705.00
2023-05-20T05:12:19.627Z,704.00
2023-05-20T05:13:19.678Z,704.00
2023-05-20T05:14:19.727Z,709.00
2023-05-20T05:15:19.788Z,708.00
2023-05-20T05:16:19.896Z,706.00
2023-05-20T05:17:19.958Z,705.00
2023-05-20T05:18:19.944Z,705.00
2023-05-20T05:19:20.004Z,706.00
2023-05-20T05:20:20.775Z,703.00
2023-05-20T05:21:20.097Z,704.00
2023-05-20T05:22:20.138Z,703.00
2023-05-20T05:23:20.171Z,703.00
2023-05-20T05:24:20.230Z,702.00
2023-05-20T05:25:20.305Z,702.00
2023-05-20T05:26:20.343Z,702.00
2023-05-20T05:27:20.386Z,704.00
2023-05-20T05:28:20.426Z,706.00
2023-05-20T05:29:20.490Z,707.00
2023-05-20T05:30:21.278Z,709.00
2023-05-20T05:31:20.602Z,713.00
2023-05-20T05:32:20.740Z,712.00
2023-05-20T05:33:20.733Z,715.00
2023-05-20T05:34:20.746Z,715.00
2023-05-20T05:35:21.781Z,714.00
2023-05-20T05:36:20.820Z,714.00
2023-05-20T05:37:20.876Z,714.00
2023-05-20T05:38:20.927Z,714.00
2023-05-20T05:39:21.802Z,713.00
2023-05-20T05:40:21.044Z,713.00
2023-05-20T05:41:21.096Z,713.00
2023-05-20T05:42:21.144Z,716.00
2023-05-20T05:43:21.194Z,718.00
2023-05-20T05:44:21.247Z,717.00
2023-05-20T05:45:21.368Z,718.00
2023-05-20T05:46:21.437Z,718.00
2023-05-20T05:47:21.542Z,717.00
2023-05-20T05:48:21.493Z,717.00
2023-05-20T05:49:21.532Z,717.00
2023-05-20T05:50:21.601Z,717.00
2023-05-20T05:51:21.653Z,718.00
2023-05-20T05:52:21.718Z,719.00
2023-05-20T05:53:21.763Z,717.00
2023-05-20T05:54:21.804Z,715.00
2023-05-20T05:55:21.863Z,714.00
2023-05-20T05:56:22.783Z,713.00
2023-05-20T05:57:21.968Z,714.00
2023-05-20T05:58:22.020Z,717.00
2023-05-20T05:59:22.074Z,718.00
2023-05-20T06:00:22.126Z,715.00
2023-05-20T06:01:22.218Z,712.00
2023-05-20T06:02:22.290Z,713.00
2023-05-20T06:03:22.476Z,714.00
2023-05-20T06:04:22.367Z,717.00
2023-05-20T06:05:22.390Z,720.00
2023-05-20T06:06:22.449Z,721.00
2023-05-20T06:07:22.512Z,717.00
2023-05-20T06:08:22.565Z,718.00
2023-05-20T06:09:23.297Z,717.00
2023-05-20T06:10:22.732Z,720.00
2023-05-20T06:11:22.723Z,719.00
2023-05-20T06:12:22.791Z,717.00
2023-05-20T06:13:22.851Z,718.00
2023-05-20T06:14:22.898Z,719.00
2023-05-20T06:15:22.937Z,720.00
2023-05-20T06:16:23.082Z,722.00
2023-05-20T06:17:23.098Z,719.00
2023-05-20T06:18:23.103Z,720.00
2023-05-20T06:19:23.587Z,720.00
2023-05-20T06:20:23.796Z,718.00
2023-05-20T06:21:23.267Z,721.00
2023-05-20T06:22:23.321Z,723.00
2023-05-20T06:23:23.372Z,724.00
2023-05-20T06:24:24.480Z,723.00
2023-05-20T06:25:23.486Z,726.00
2023-05-20T06:26:23.536Z,724.00
2023-05-20T06:27:23.592Z,727.00
2023-05-20T06:28:23.641Z,729.00
2023-05-20T06:29:23.689Z,730.00
2023-05-20T06:30:23.747Z,732.00
2023-05-20T06:31:23.835Z,730.00
2023-05-20T06:32:23.959Z,728.00
2023-05-20T06:33:23.919Z,726.00
2023-05-20T06:34:23.964Z,725.00
2023-05-20T06:35:24.017Z,728.00
2023-05-20T06:36:24.070Z,725.00
2023-05-20T06:37:24.125Z,724.00
2023-05-20T06:38:24.180Z,726.00
2023-05-20T06:39:24.233Z,724.00
2023-05-20T06:40:24.288Z,721.00
2023-05-20T06:41:24.339Z,725.00
2023-05-20T06:42:25.310Z,726.00
2023-05-20T06:43:24.445Z,722.00
2023-05-20T06:44:24.494Z,720.00
2023-05-20T06:45:24.547Z,718.00
2023-05-20T06:46:24.635Z,714.00
2023-05-20T06:47:24.662Z,710.00
2023-05-20T06:48:24.682Z,708.00
2023-05-20T06:49:24.732Z,710.00
2023-05-20T06:50:24.795Z,708.00
2023-05-20T06:51:24.825Z,709.00
2023-05-20T06:52:24.886Z,707.00
2023-05-20T06:53:24.952Z,709.00
2023-05-20T06:54:24.967Z,707.00
2023-05-20T06:55:25.309Z,708.00
2023-05-20T06:56:27.807Z,706.00
2023-05-20T06:57:25.079Z,708.00
2023-05-20T06:58:25.079Z,711.00
2023-05-20T06:59:25.051Z,713.00
2023-05-20T07:00:25.069Z,714.00
2023-05-20T07:01:25.082Z,714.00
2023-05-20T07:02:25.100Z,714.00
2023-05-20T07:03:25.097Z,712.00
2023-05-20T07:04:25.018Z,713.00
2023-05-20T07:05:25.038Z,713.00
2023-05-20T07:06:25.014Z,712.00
2023-05-20T07:07:24.988Z,711.00
2023-05-20T07:08:24.972Z,710.00
2023-05-20T07:09:24.978Z,708.00
2023-05-20T07:10:24.961Z,708.00
2023-05-20T07:11:24.959Z,709.00
2023-05-20T07:12:24.933Z,708.00
2023-05-20T07:13:24.927Z,707.00
2023-05-20T07:14:24.930Z,707.00
2023-05-20T07:15:24.911Z,706.00
2023-05-20T07:16:24.931Z,706.00
2023-05-20T07:17:24.962Z,704.00
2023-05-20T07:18:24.887Z,705.00
2023-05-20T07:19:24.952Z,703.00
2023-05-20T07:20:24.860Z,705.00
2023-05-20T07:21:24.831Z,707.00
2023-05-20T07:22:24.819Z,709.00
2023-05-20T07:23:24.818Z,705.00
2023-05-20T07:24:24.794Z,704.00
2023-05-20T07:25:24.764Z,706.00
2023-05-20T07:26:24.770Z,708.00
2023-05-20T07:27:24.812Z,709.00
2023-05-20T07:28:24.738Z,710.00
2023-05-20T07:29:24.725Z,710.00
2023-05-20T07:30:24.766Z,708.00
2023-05-20T07:31:24.736Z,707.00
2023-05-20T07:32:24.710Z,704.00
2023-05-20T07:33:24.655Z,703.00
2023-05-20T07:34:24.715Z,704.00
2023-05-20T07:35:24.638Z,701.00
2023-05-20T07:36:24.614Z,700.00
2023-05-20T07:37:24.597Z,698.00
2023-05-20T07:38:24.832Z,696.00
2023-05-20T07:39:24.648Z,697.00
2023-05-20T07:40:24.783Z,696.00
2023-05-20T07:41:24.750Z,695.00
2023-05-20T07:42:24.808Z,699.00
2023-05-20T07:43:24.855Z,700.00
2023-05-20T07:44:25.819Z,700.00
2023-05-20T07:45:24.977Z,701.00
2023-05-20T07:46:25.026Z,700.00
2023-05-20T07:47:25.238Z,701.00
2023-05-20T07:48:25.088Z,700.00
2023-05-20T07:49:25.122Z,704.00
2023-05-20T07:50:25.175Z,705.00
2023-05-20T07:51:25.210Z,705.00
2023-05-20T07:52:25.253Z,706.00
2023-05-20T07:53:25.300Z,710.00
2023-05-20T07:54:25.345Z,710.00
2023-05-20T07:55:25.383Z,712.00
2023-05-20T07:56:25.521Z,710.00
2023-05-20T07:57:25.468Z,709.00
2023-05-20T07:58:25.502Z,707.00
2023-05-20T07:59:25.558Z,706.00
2023-05-20T08:00:25.591Z,707.00
2023-05-20T08:01:25.623Z,706.00
2023-05-20T08:02:25.847Z,706.00
2023-05-20T08:03:25.835Z,706.00
2023-05-20T08:04:25.807Z,707.00
2023-05-20T08:05:25.786Z,708.00
2023-05-20T08:06:27.894Z,711.00
2023-05-20T08:07:25.817Z,712.00
2023-05-20T08:08:25.825Z,711.00
2023-05-20T08:09:25.800Z,711.00
2023-05-20T08:10:25.783Z,709.00
2023-05-20T08:11:25.781Z,713.00
2023-05-20T08:12:25.758Z,711.00
2023-05-20T08:13:25.777Z,711.00
2023-05-20T08:14:25.832Z,710.00
2023-05-20T08:15:25.729Z,710.00
2023-05-20T08:16:25.719Z,711.00
2023-05-20T08:17:25.751Z,712.00
2023-05-20T08:18:25.691Z,710.00
2023-05-20T08:19:25.758Z,708.00
2023-05-20T08:20:25.740Z,711.00
2023-05-20T08:21:25.662Z,713.00
2023-05-20T08:22:25.636Z,709.00
2023-05-20T08:23:25.648Z,708.00
2023-05-20T08:24:25.622Z,706.00
2023-05-20T08:25:25.596Z,705.00
2023-05-20T08:26:25.597Z,706.00
2023-05-20T08:27:25.567Z,708.00
2023-05-20T08:28:25.617Z,708.00
2023-05-20T08:29:25.537Z,710.00
2023-05-20T08:30:25.524Z,708.00
2023-05-20T08:31:25.530Z,709.00
2023-05-20T08:32:25.531Z,704.00
2023-05-20T08:33:25.558Z,703.00
2023-05-20T08:34:25.461Z,704.00
2023-05-20T08:35:25.526Z,703.00
2023-05-20T08:36:25.433Z,702.00
2023-05-20T08:37:25.411Z,704.00
2023-05-20T08:38:25.395Z,706.00
2023-05-20T08:39:25.363Z,705.00
2023-05-20T08:40:25.342Z,704.00
2023-05-20T08:41:25.421Z,704.00
2023-05-20T08:42:25.328Z,706.00
2023-05-20T08:43:25.410Z,702.00
2023-05-20T08:44:25.281Z,700.00
2023-05-20T08:45:25.264Z,702.00
2023-05-20T08:46:25.344Z,704.00
2023-05-20T08:47:25.313Z,702.00
2023-05-20T08:48:25.326Z,703.00
2023-05-20T08:49:25.356Z,703.00
2023-05-20T08:50:25.460Z,704.00
2023-05-20T08:51:25.415Z,709.00
2023-05-20T08:52:25.490Z,711.00
2023-05-20T08:53:25.461Z,709.00
2023-05-20T08:54:25.477Z,708.00
2023-05-20T08:55:25.528Z,707.00
2023-05-20T08:56:25.524Z,704.00
2023-05-20T08:57:25.622Z,704.00
2023-05-20T08:58:25.585Z,704.00
2023-05-20T08:59:25.607Z,705.00
2023-05-20T09:00:25.620Z,704.00
2023-05-20T09:01:25.683Z,704.00
2023-05-20T09:02:25.720Z,703.00
2023-05-20T09:03:25.717Z,706.00
2023-05-20T09:04:25.851Z,706.00
2023-05-20T09:05:25.739Z,704.00
2023-05-20T09:06:25.763Z,705.00
2023-05-20T09:07:25.847Z,702.00
2023-05-20T09:08:25.811Z,699.00
2023-05-20T09:09:25.834Z,697.00
2023-05-20T09:10:25.872Z,696.00
2023-05-20T09:11:25.881Z,698.00
2023-05-20T09:12:25.893Z,702.00
2023-05-20T09:13:26.001Z,703.00
2023-05-20T09:14:25.919Z,704.00
2023-05-20T09:15:26.004Z,704.00
2023-05-20T09:16:26.042Z,707.00
2023-05-20T09:17:25.992Z,709.00
2023-05-20T09:18:25.985Z,712.00
2023-05-20T09:19:26.017Z,710.00
2023-05-20T09:20:26.083Z,712.00
2023-05-20T09:21:26.032Z,710.00
2023-05-20T09:22:26.055Z,710.00
2023-05-20T09:23:26.864Z,708.00
2023-05-20T09:24:27.194Z,707.00
2023-05-20T09:25:26.134Z,706.00
2023-05-20T09:26:26.455Z,703.00
2023-05-20T09:27:26.154Z,703.00
2023-05-20T09:28:26.194Z,704.00
2023-05-20T09:29:26.210Z,702.00
2023-05-20T09:30:26.235Z,703.00
2023-05-20T09:31:26.275Z,703.00
2023-05-20T09:32:26.272Z,702.00
2023-05-20T09:33:26.288Z,699.00
2023-05-20T09:34:26.333Z,697.00
2023-05-20T09:35:26.387Z,693.00
2023-05-20T09:36:26.378Z,694.00
2023-05-20T09:37:26.413Z,696.00
2023-05-20T09:38:26.393Z,699.00
2023-05-20T09:39:26.423Z,702.00
2023-05-20T09:40:26.407Z,702.00
2023-05-20T09:41:26.486Z,703.00
2023-05-20T09:42:26.459Z,704.00
2023-05-20T09:43:26.436Z,704.00
2023-05-20T09:44:26.450Z,705.00
2023-05-20T09:45:26.464Z,701.00
2023-05-20T09:46:26.573Z,704.00
2023-05-20T09:47:26.482Z,706.00
2023-05-20T09:48:26.510Z,708.00
2023-05-20T09:49:26.516Z,705.00
2023-05-20T09:50:26.530Z,707.00
2023-05-20T09:51:26.551Z,707.00
2023-05-20T09:52:27.357Z,708.00
2023-05-20T09:53:26.559Z,707.00
2023-05-20T09:54:26.640Z,708.00
2023-05-20T09:55:27.443Z,709.00
2023-05-20T09:56:26.610Z,708.00
2023-05-20T09:57:26.611Z,707.00
2023-05-20T09:58:26.634Z,707.00
2023-05-20T09:59:26.657Z,707.00
2023-05-20T10:00:26.646Z,707.00
2023-05-20T10:01:26.709Z,700.00
2023-05-20T10:02:26.749Z,702.00
2023-05-20T10:03:26.942Z,703.00
2023-05-20T10:04:26.718Z,701.00
2023-05-20T10:05:26.712Z,699.00
2023-05-20T10:06:26.718Z,703.00
2023-05-20T10:07:40.799Z,702.00
2023-05-20T10:08:27.716Z,703.00
2023-05-20T10:09:26.700Z,702.00
2023-05-20T10:10:27.382Z,701.00
2023-05-20T10:11:26.656Z,697.00
2023-05-20T10:12:26.635Z,694.00
2023-05-20T10:13:26.638Z,692.00
2023-05-20T10:14:26.632Z,689.00
2023-05-20T10:15:26.580Z,689.00
2023-05-20T10:16:26.641Z,693.00
2023-05-20T10:17:26.699Z,692.00
2023-05-20T10:18:26.518Z,692.00
2023-05-20T10:19:26.698Z,694.00
2023-05-20T10:20:26.493Z,695.00
2023-05-20T10:21:26.545Z,695.00
2023-05-20T10:22:26.506Z,693.00
2023-05-20T10:23:26.493Z,692.00
2023-05-20T10:24:26.427Z,695.00
2023-05-20T10:25:26.425Z,697.00
2023-05-20T10:26:26.422Z,699.00
2023-05-20T10:27:26.331Z,698.00
2023-05-20T10:28:26.313Z,696.00
2023-05-20T10:29:26.296Z,694.00
2023-05-20T10:30:26.277Z,694.00
2023-05-20T10:31:26.286Z,696.00
2023-05-20T10:32:26.331Z,698.00
2023-05-20T10:33:26.337Z,695.00
2023-05-20T10:34:26.291Z,695.00
2023-05-20T10:35:26.323Z,695.00
2023-05-20T10:36:26.334Z,700.00
2023-05-20T10:37:26.326Z,698.00
2023-05-20T10:38:26.314Z,694.00
2023-05-20T10:39:26.421Z,696.00
2023-05-20T10:40:26.325Z,696.00
2023-05-20T10:41:26.325Z,696.00
2023-05-20T10:42:26.354Z,697.00
2023-05-20T10:43:26.329Z,700.00
2023-05-20T10:44:26.343Z,699.00
2023-05-20T10:45:26.347Z,695.00
2023-05-20T10:47:26.736Z,694.00
2023-05-20T10:48:26.515Z,694.00
2023-05-20T10:49:27.852Z,692.00
2023-05-20T10:50:26.348Z,690.00
2023-05-20T10:51:26.342Z,691.00
2023-05-20T10:52:26.343Z,690.00
2023-05-20T10:53:33.340Z,689.00
2023-05-20T10:54:27.381Z,689.00
2023-05-20T10:55:26.304Z,690.00
2023-05-20T10:56:26.259Z,692.00
2023-05-20T10:57:26.328Z,693.00
2023-05-20T10:58:26.258Z,694.00
2023-05-20T10:59:26.206Z,696.00
2023-05-20T11:00:26.188Z,698.00
2023-05-20T11:01:26.306Z,696.00
2023-05-20T11:02:26.138Z,696.00
2023-05-20T11:03:26.277Z,698.00
2023-05-20T11:04:26.112Z,698.00
2023-05-20T11:05:26.176Z,699.00
2023-05-20T11:06:26.070Z,697.00
2023-05-20T11:07:26.052Z,697.00
2023-05-20T11:08:28.908Z,694.00
2023-05-20T11:09:26.003Z,693.00
2023-05-20T11:10:25.998Z,692.00
2023-05-20T11:11:25.975Z,694.00
2023-05-20T11:12:26.056Z,693.00
2023-05-20T11:13:26.279Z,693.00
2023-05-20T11:14:25.899Z,692.00
2023-05-20T11:15:25.921Z,693.00
2023-05-20T11:16:25.886Z,693.00
2023-05-20T11:17:25.872Z,695.00
2023-05-20T11:18:25.797Z,695.00
2023-05-20T11:19:25.804Z,694.00
2023-05-20T11:20:25.755Z,693.00
2023-05-20T11:21:25.732Z,693.00
2023-05-20T11:22:25.703Z,691.00
2023-05-20T11:23:25.681Z,692.00
2023-05-20T11:24:25.677Z,695.00
2023-05-20T11:25:25.630Z,695.00
2023-05-20T11:26:25.780Z,695.00
2023-05-20T11:27:25.579Z,692.00
2023-05-20T11:28:25.602Z,689.00
2023-05-20T11:29:25.553Z,689.00
2023-05-20T11:30:25.576Z,694.00
2023-05-20T11:31:25.553Z,696.00
2023-05-20T11:32:25.535Z,695.00
2023-05-20T11:33:25.438Z,697.00
2023-05-20T11:34:26.794Z,701.00
2023-05-20T11:35:25.390Z,700.00
2023-05-20T11:36:27.794Z,700.00
2023-05-20T11:37:25.345Z,702.00
2023-05-20T11:38:25.317Z,700.00
2023-05-20T11:39:25.297Z,701.00
2023-05-20T11:40:27.076Z,698.00
2023-05-20T11:41:25.255Z,699.00
2023-05-20T11:42:25.227Z,696.00
2023-05-20T11:43:25.222Z,695.00
2023-05-20T11:44:25.436Z,695.00
2023-05-20T11:45:25.907Z,694.00
2023-05-20T11:46:25.210Z,693.00
2023-05-20T11:47:25.134Z,692.00
2023-05-20T11:48:25.128Z,691.00
2023-05-20T11:49:25.085Z,691.00
2023-05-20T11:50:25.069Z,696.00
2023-05-20T11:51:25.911Z,699.00
2023-05-20T11:52:25.016Z,699.00
2023-05-20T11:53:24.987Z,700.00
2023-05-20T11:54:24.976Z,698.00
2023-05-20T11:55:24.945Z,696.00
2023-05-20T11:56:24.912Z,696.00
2023-05-20T11:57:24.891Z,697.00
2023-05-20T11:58:24.893Z,700.00
2023-05-20T11:59:24.881Z,702.00
2023-05-20T12:00:25.496Z,701.00
2023-05-20T12:01:24.912Z,701.00
2023-05-20T12:02:24.840Z,703.00
2023-05-20T12:03:24.868Z,702.00
2023-05-20T12:04:24.730Z,701.00
2023-05-20T12:05:24.700Z,701.00
2023-05-20T12:06:24.668Z,699.00
2023-05-20T12:07:24.642Z,700.00
2023-05-20T12:08:24.626Z,701.00
2023-05-20T12:09:24.601Z,699.00
2023-05-20T12:10:24.582Z,701.00
2023-05-20T12:11:24.548Z,699.00
2023-05-20T12:12:24.924Z,701.00
2023-05-20T12:13:24.503Z,701.00
2023-05-20T12:14:24.486Z,701.00
2023-05-20T12:15:24.449Z,701.00
2023-05-20T12:16:24.502Z,700.00
2023-05-20T12:17:24.473Z,702.00
2023-05-20T12:18:24.373Z,704.00
2023-05-20T12:19:24.363Z,702.00
2023-05-20T12:20:24.345Z,708.00
2023-05-20T12:21:24.302Z,705.00
2023-05-20T12:22:24.278Z,706.00
2023-05-20T12:23:24.254Z,705.00
2023-05-20T12:24:24.239Z,702.00
2023-05-20T12:25:24.211Z,699.00
2023-05-20T12:26:24.189Z,697.00
2023-05-20T12:27:24.162Z,696.00
2023-05-20T12:28:24.139Z,696.00
2023-05-20T12:29:24.218Z,698.00